createdAt,value
2018-11-11T00:00:12.613Z,7.33
2018-11-11T00:02:41.547Z,6.90
2018-11-11T00:05:11.134Z,7.10
2018-11-11T00:07:40.432Z,7.15
2018-11-11T00:10:15.023Z,6.90
2018-11-11T00:12:43.941Z,6.80
2018-11-11T00:15:13.965Z,6.30
2018-11-11T00:17:45.100Z,6.93
2018-11-11T00:20:14.122Z,6.50
2018-11-11T00:22:43.174Z,6.75
2018-11-11T00:25:12.111Z,6.67
2018-11-11T00:27:41.142Z,6.40
2018-11-11T00:30:14.307Z,6.60
2018-11-11T00:32:43.285Z,7.03
2018-11-11T00:35:12.225Z,6.80
2018-11-11T00:37:41.532Z,7.47
2018-11-11T00:40:11.653Z,6.70
2018-11-11T00:42:40.559Z,7.15
2018-11-11T00:45:10.173Z,6.37
2018-11-11T00:47:39.120Z,6.75
2018-11-11T00:50:09.241Z,6.75
2018-11-11T00:52:38.431Z,6.80
2018-11-11T00:55:09.309Z,6.85
2018-11-11T00:57:38.245Z,7.23
2018-11-11T01:00:11.894Z,7.70
2018-11-11T01:02:41.106Z,7.42
2018-11-11T01:05:10.968Z,7.10
2018-11-11T01:07:40.813Z,7.03
2018-11-11T01:10:11.717Z,6.60
2018-11-11T01:12:41.575Z,6.03
2018-11-11T01:15:12.156Z,6.17
2018-11-11T01:17:41.094Z,5.77
2018-11-11T01:20:12.716Z,6.20
2018-11-11T01:22:41.769Z,5.80
2018-11-11T01:25:12.538Z,5.97
2018-11-11T01:27:41.520Z,5.85
2018-11-11T01:30:10.452Z,5.58
2018-11-11T01:32:39.735Z,5.77
2018-11-11T01:35:11.053Z,6.00
2018-11-11T01:37:40.381Z,5.07
2018-11-11T01:40:09.381Z,4.80
2018-11-11T01:42:38.382Z,4.55
2018-11-11T01:45:14.347Z,4.70
2018-11-11T01:47:44.233Z,5.40
2018-11-11T01:50:13.820Z,5.20
2018-11-11T01:52:43.437Z,4.90
2018-11-11T01:55:13.497Z,4.83
2018-11-11T01:57:43.207Z,4.90
2018-11-11T02:00:15.548Z,4.87
2018-11-11T02:02:46.361Z,4.40
2018-11-11T02:05:15.565Z,4.60
2018-11-11T02:07:45.477Z,4.35
2018-11-11T02:10:14.389Z,4.20
2018-11-11T02:12:44.636Z,4.20
2018-11-11T02:15:14.593Z,4.22
2018-11-11T02:17:43.493Z,4.62
2018-11-11T02:20:15.125Z,4.05
2018-11-11T02:22:44.834Z,4.37
2018-11-11T02:25:13.724Z,4.33
2018-11-11T02:27:42.633Z,4.40
2018-11-11T02:30:13.961Z,4.25
2018-11-11T02:32:43.377Z,4.20
2018-11-11T02:35:12.573Z,4.30
2018-11-11T02:37:41.655Z,3.52
2018-11-11T02:40:12.398Z,3.83
2018-11-11T02:42:41.298Z,3.98
2018-11-11T02:45:11.610Z,4.30
2018-11-11T02:47:40.502Z,4.00
2018-11-11T02:50:11.249Z,3.62
2018-11-11T02:52:40.715Z,3.90
2018-11-11T02:55:10.232Z,4.42
2018-11-11T02:57:39.488Z,3.90
2018-11-11T03:00:10.636Z,4.00
2018-11-11T03:02:39.698Z,4.00
2018-11-11T03:05:09.453Z,3.55
2018-11-11T03:07:38.683Z,3.57
2018-11-11T03:10:08.397Z,3.10
2018-11-11T03:12:37.562Z,3.22
2018-11-11T03:15:07.376Z,3.50
2018-11-11T03:17:36.330Z,3.00
2018-11-11T03:20:05.685Z,3.30
2018-11-11T03:22:34.650Z,2.85
2018-11-11T03:25:03.667Z,3.12
2018-11-11T03:27:32.564Z,2.62
2018-11-11T03:30:01.482Z,2.70
2018-11-11T03:32:30.351Z,2.50
2018-11-11T03:34:59.265Z,2.70
2018-11-11T03:37:28.159Z,2.50
2018-11-11T03:39:57.081Z,2.60
2018-11-11T03:42:25.974Z,2.40
2018-11-11T03:44:54.905Z,2.33
2018-11-11T03:47:23.815Z,2.30
2018-11-11T03:49:52.773Z,2.50
2018-11-11T03:52:21.674Z,2.77
2018-11-11T03:54:50.599Z,2.30
2018-11-11T03:57:19.518Z,2.47
2018-11-11T03:59:48.433Z,2.50
2018-11-11T04:02:17.325Z,2.30
2018-11-11T04:04:46.265Z,2.65
2018-11-11T04:07:15.162Z,2.58
2018-11-11T04:09:44.073Z,2.70
2018-11-11T04:12:12.970Z,2.42
2018-11-11T04:14:41.894Z,2.42
2018-11-11T04:17:10.789Z,2.47
2018-11-11T04:19:39.710Z,2.70
2018-11-11T04:22:14.777Z,2.92
2018-11-11T04:24:43.716Z,2.80
2018-11-11T04:27:12.716Z,3.35
2018-11-11T04:29:41.658Z,3.40
2018-11-11T04:32:11.002Z,3.50
2018-11-11T04:34:40.334Z,3.10
2018-11-11T04:37:09.858Z,3.42
2018-11-11T04:39:39.024Z,3.20
2018-11-11T04:42:07.949Z,3.20
2018-11-11T04:44:36.886Z,3.40
2018-11-11T04:47:05.859Z,3.30
2018-11-11T04:49:34.898Z,3.33
2018-11-11T04:52:03.845Z,3.30
2018-11-11T04:54:32.746Z,3.10
2018-11-11T04:57:01.693Z,2.90
2018-11-11T04:59:30.604Z,2.95
2018-11-11T05:01:59.535Z,3.60
2018-11-11T05:04:28.467Z,3.30
2018-11-11T05:06:57.413Z,2.50
2018-11-11T05:09:26.327Z,3.00
2018-11-11T05:11:55.301Z,2.87
2018-11-11T05:14:24.208Z,2.90
2018-11-11T05:16:53.133Z,2.90
2018-11-11T05:19:22.059Z,2.93
2018-11-11T05:21:51.045Z,2.65
2018-11-11T05:24:19.905Z,2.40
2018-11-11T05:26:48.830Z,2.65
2018-11-11T05:29:17.722Z,2.33
2018-11-11T05:31:46.641Z,2.40
2018-11-11T05:34:15.557Z,2.30
2018-11-11T05:36:44.497Z,2.30
2018-11-11T05:39:14.335Z,2.20
2018-11-11T05:41:43.240Z,2.40
2018-11-11T05:44:12.166Z,2.00
2018-11-11T05:46:41.078Z,1.73
2018-11-11T05:49:10.021Z,1.87
2018-11-11T05:51:38.949Z,2.00
2018-11-11T05:54:07.838Z,2.00
2018-11-11T05:56:36.777Z,1.90
2018-11-11T05:59:06.090Z,2.00
2018-11-11T06:01:35.099Z,1.50
2018-11-11T06:04:03.984Z,1.90
2018-11-11T06:06:32.894Z,1.70
2018-11-11T06:09:01.777Z,1.90
2018-11-11T06:11:30.705Z,1.82
2018-11-11T06:13:59.622Z,2.00
2018-11-11T06:16:28.537Z,1.90
2018-11-11T06:18:57.457Z,2.10
2018-11-11T06:21:26.477Z,1.70
2018-11-11T06:23:55.394Z,2.00
2018-11-11T06:26:24.317Z,1.80
2018-11-11T06:28:53.302Z,1.70
2018-11-11T06:31:22.249Z,2.20
2018-11-11T06:33:51.158Z,1.70
2018-11-11T06:36:20.126Z,1.80
2018-11-11T06:38:49.045Z,2.20
2018-11-11T06:41:17.967Z,1.98
2018-11-11T06:43:46.857Z,1.85
2018-11-11T06:46:15.762Z,1.82
2018-11-11T06:48:44.660Z,1.80
2018-11-11T06:51:13.558Z,2.40
2018-11-11T06:53:42.473Z,2.10
2018-11-11T06:56:11.370Z,2.20
2018-11-11T06:58:40.294Z,2.30
2018-11-11T07:01:09.186Z,2.30
2018-11-11T07:04:00.014Z,2.12
2018-11-11T07:06:29.428Z,2.35
2018-11-11T07:08:58.470Z,2.42
2018-11-11T07:11:27.405Z,2.40
2018-11-11T07:13:56.355Z,2.40
2018-11-11T07:16:25.232Z,2.60
2018-11-11T07:18:54.148Z,2.50
2018-11-11T07:21:23.061Z,2.20
2018-11-11T07:23:52.012Z,2.20
2018-11-11T07:26:20.889Z,2.80
2018-11-11T07:28:49.817Z,2.42
2018-11-11T07:31:18.711Z,3.20
2018-11-11T07:33:47.612Z,2.70
2018-11-11T07:36:16.518Z,2.80
2018-11-11T07:38:45.463Z,2.80
2018-11-11T07:41:14.353Z,2.70
2018-11-11T07:43:43.273Z,2.92
2018-11-11T07:46:12.209Z,3.30
2018-11-11T07:48:41.127Z,3.60
2018-11-11T07:51:10.017Z,3.60
2018-11-11T07:53:38.932Z,3.10
2018-11-11T07:56:07.844Z,3.60
2018-11-11T07:58:36.822Z,4.00
2018-11-11T08:01:05.752Z,3.85
2018-11-11T08:03:34.706Z,3.95
2018-11-11T08:06:03.658Z,4.20
2018-11-11T08:08:32.587Z,4.50
2018-11-11T08:11:12.992Z,4.53
2018-11-11T08:13:41.821Z,4.10
2018-11-11T08:16:10.773Z,4.55
2018-11-11T08:18:39.744Z,4.30
2018-11-11T08:21:08.670Z,5.20
2018-11-11T08:23:37.591Z,4.87
2018-11-11T08:26:06.517Z,4.97
2018-11-11T08:28:35.457Z,4.43
2018-11-11T08:31:04.582Z,5.20
2018-11-11T08:33:33.859Z,5.10
2018-11-11T08:36:02.773Z,5.28
2018-11-11T08:38:31.774Z,5.13
2018-11-11T08:41:00.734Z,4.97
2018-11-11T08:43:29.678Z,5.87
2018-11-11T08:45:58.634Z,5.70
2018-11-11T08:48:27.562Z,4.77
2018-11-11T08:50:56.477Z,5.00
2018-11-11T08:53:25.427Z,4.70
2018-11-11T08:55:54.332Z,4.37
2018-11-11T08:58:23.252Z,4.13
2018-11-11T09:00:52.161Z,3.90
2018-11-11T09:03:21.114Z,4.27
2018-11-11T09:05:50.034Z,4.30
2018-11-11T09:08:18.972Z,4.30
2018-11-11T09:10:47.877Z,4.50
2018-11-11T09:13:16.809Z,3.93
2018-11-11T09:15:45.726Z,3.77
2018-11-11T09:18:14.669Z,3.62
2018-11-11T09:20:43.597Z,4.12
2018-11-11T09:23:12.534Z,4.37
2018-11-11T09:25:41.465Z,3.83
2018-11-11T09:28:10.386Z,3.30
2018-11-11T09:30:39.314Z,3.20
2018-11-11T09:33:08.336Z,4.33
2018-11-11T09:35:37.249Z,3.83
2018-11-11T09:38:06.231Z,3.60
2018-11-11T09:40:35.145Z,3.07
2018-11-11T09:43:04.129Z,3.00
2018-11-11T09:45:33.084Z,3.40
2018-11-11T09:48:02.106Z,3.43
2018-11-11T09:50:30.958Z,3.20
2018-11-11T09:52:59.874Z,3.30
2018-11-11T09:55:28.814Z,3.27
2018-11-11T09:57:57.737Z,3.20
2018-11-11T10:00:26.688Z,3.37
2018-11-11T10:05:05.874Z,3.10
2018-11-11T10:07:41.326Z,2.58
2018-11-11T10:12:18.075Z,2.90
2018-11-11T10:15:51.893Z,2.80
2018-11-11T10:18:27.897Z,2.80
2018-11-11T10:23:04.937Z,4.30
2018-11-11T10:25:39.509Z,3.30
2018-11-11T10:28:17.292Z,2.92
2018-11-11T10:30:50.174Z,2.70
2018-11-11T10:33:27.955Z,2.58
2018-11-11T10:36:05.369Z,2.72
2018-11-11T10:39:09.470Z,2.70
2018-11-11T10:42:14.069Z,2.47
2018-11-11T10:44:49.045Z,2.40
2018-11-11T10:47:21.991Z,2.30
2018-11-11T10:49:54.085Z,2.08
2018-11-11T10:52:23.232Z,2.50
2018-11-11T10:54:52.171Z,2.17
2018-11-11T10:57:21.036Z,1.70
2018-11-11T10:59:49.982Z,2.08
2018-11-11T11:02:24.946Z,1.70
2018-11-11T11:04:59.339Z,1.98
2018-11-11T11:07:28.232Z,1.73
2018-11-11T11:09:57.157Z,1.95
2018-11-11T11:12:26.094Z,1.70
2018-11-11T11:14:55.020Z,1.92
2018-11-11T11:17:23.926Z,1.60
2018-11-11T11:19:52.852Z,1.50
2018-11-11T11:22:21.741Z,2.00
2018-11-11T11:24:50.673Z,1.45
2018-11-11T11:27:19.659Z,1.57
2018-11-11T11:29:48.479Z,1.72
2018-11-11T11:32:17.601Z,1.40
2018-11-11T11:34:46.509Z,1.50
2018-11-11T11:37:15.397Z,1.07
2018-11-11T11:39:44.297Z,1.20
2018-11-11T11:42:13.229Z,1.15
2018-11-11T11:44:42.132Z,0.90
2018-11-11T11:47:11.079Z,0.93
2018-11-11T11:49:39.917Z,1.10
2018-11-11T11:52:08.931Z,1.10
2018-11-11T11:54:37.744Z,1.10
2018-11-11T11:57:06.658Z,1.10
2018-11-11T11:59:35.541Z,1.22
2018-11-11T12:02:04.677Z,1.02
2018-11-11T12:04:33.556Z,0.90
2018-11-11T12:07:02.474Z,1.10
2018-11-11T12:09:31.349Z,1.00
2018-11-11T12:12:00.273Z,1.20
2018-11-11T12:14:29.165Z,1.30
2018-11-11T12:16:58.096Z,1.03
2018-11-11T12:19:26.973Z,1.40
2018-11-11T12:21:55.925Z,1.30
2018-11-11T12:24:24.816Z,1.07
2018-11-11T12:26:53.716Z,1.17
2018-11-11T12:29:22.593Z,1.10
2018-11-11T12:31:51.504Z,1.02
2018-11-11T12:34:20.409Z,1.10
2018-11-11T12:36:49.309Z,1.10
2018-11-11T12:39:18.407Z,1.12
2018-11-11T12:41:47.156Z,1.00
2018-11-11T12:44:16.065Z,1.80
2018-11-11T12:46:45.000Z,1.00
2018-11-11T12:49:13.983Z,1.30
2018-11-11T12:51:42.886Z,1.10
2018-11-11T12:54:11.786Z,1.12
2018-11-11T12:56:40.694Z,0.90
2018-11-11T12:59:09.585Z,1.25
2018-11-11T13:01:38.524Z,1.50
2018-11-11T13:04:07.409Z,1.17
2018-11-11T13:06:36.341Z,1.20
2018-11-11T13:09:08.162Z,1.20
2018-11-11T13:11:37.172Z,1.20
2018-11-11T13:14:06.181Z,1.10
2018-11-11T13:16:35.081Z,1.35
2018-11-11T13:19:04.001Z,1.00
2018-11-11T13:21:32.918Z,1.10
2018-11-11T13:24:01.829Z,1.40
2018-11-11T13:26:30.721Z,0.90
2018-11-11T13:28:59.646Z,0.90
2018-11-11T13:31:28.548Z,1.10
2018-11-11T13:33:57.464Z,1.17
2018-11-11T13:36:26.350Z,1.30
2018-11-11T13:38:55.290Z,1.20
2018-11-11T13:41:24.173Z,1.00
2018-11-11T13:43:53.085Z,1.35
2018-11-11T13:46:22.115Z,1.80
2018-11-11T13:48:50.873Z,1.20
2018-11-11T13:51:19.749Z,2.50
2018-11-11T13:53:48.678Z,1.10
2018-11-11T13:56:17.594Z,1.30
2018-11-11T13:58:46.509Z,1.50
2018-11-11T14:01:15.396Z,1.40
2018-11-11T14:03:44.321Z,1.40
2018-11-11T14:06:13.225Z,1.40
2018-11-11T14:08:42.209Z,1.27
2018-11-11T14:11:11.164Z,1.10
2018-11-11T14:13:40.004Z,1.47
2018-11-11T14:16:08.893Z,1.47
2018-11-11T14:18:37.937Z,1.10
2018-11-11T14:21:06.669Z,1.10
2018-11-11T14:23:35.576Z,1.20
2018-11-11T14:26:04.577Z,1.62
2018-11-11T14:28:33.469Z,1.30
2018-11-11T14:31:02.350Z,1.27
2018-11-11T14:33:31.248Z,1.40
2018-11-11T14:36:00.199Z,1.37
2018-11-11T14:38:29.135Z,1.50
2018-11-11T14:40:58.010Z,1.72
2018-11-11T14:43:26.922Z,1.37
2018-11-11T14:45:55.821Z,1.40
2018-11-11T14:48:24.704Z,1.60
2018-11-11T14:50:53.590Z,1.30
2018-11-11T14:53:22.497Z,1.80
2018-11-11T14:55:51.397Z,1.50
2018-11-11T14:58:20.356Z,1.40
2018-11-11T15:00:49.184Z,1.40
2018-11-11T15:03:19.213Z,1.20
2018-11-11T15:05:48.377Z,1.40
2018-11-11T15:08:17.272Z,1.47
2018-11-11T15:10:46.165Z,1.75
2018-11-11T15:13:15.910Z,1.20
2018-11-11T15:15:44.816Z,1.70
2018-11-11T15:18:13.713Z,1.30
2018-11-11T15:20:42.721Z,1.50
2018-11-11T15:23:11.501Z,1.80
2018-11-11T15:25:40.417Z,1.80
2018-11-11T15:28:09.301Z,1.70
2018-11-11T15:30:39.099Z,1.87
2018-11-11T15:33:08.442Z,1.80
2018-11-11T15:35:37.401Z,1.67
2018-11-11T15:38:06.373Z,1.45
2018-11-11T15:40:36.613Z,1.72
2018-11-11T15:43:05.853Z,2.10
2018-11-11T15:45:35.445Z,1.90
2018-11-11T15:48:04.752Z,1.90
2018-11-11T15:50:34.445Z,1.60
2018-11-11T15:53:04.648Z,2.00
2018-11-11T15:55:34.785Z,2.17
2018-11-11T15:58:03.673Z,2.33
2018-11-11T16:00:33.810Z,2.10
2018-11-11T16:03:02.791Z,1.95
2018-11-11T16:05:31.685Z,2.17
2018-11-11T16:08:01.160Z,1.87
2018-11-11T16:10:31.149Z,1.85
2018-11-11T16:13:00.123Z,2.02
2018-11-11T16:15:30.517Z,2.37
2018-11-11T16:18:01.158Z,2.00
2018-11-11T16:20:30.678Z,1.80
2018-11-11T16:23:00.538Z,2.10
2018-11-11T16:25:29.473Z,2.37
2018-11-11T16:27:58.338Z,2.08
2018-11-11T16:30:28.772Z,2.20
2018-11-11T16:32:58.454Z,1.95
2018-11-11T16:35:28.086Z,2.07
2018-11-11T16:37:57.249Z,2.67
2018-11-11T16:40:27.495Z,2.08
2018-11-11T16:42:56.674Z,1.90
2018-11-11T16:45:26.793Z,2.20
2018-11-11T16:47:55.713Z,2.30
2018-11-11T16:50:27.517Z,2.00
2018-11-11T16:52:57.589Z,3.60
2018-11-11T16:55:28.265Z,4.12
2018-11-11T16:57:57.141Z,3.67
2018-11-11T17:00:27.551Z,3.30
2018-11-11T17:02:57.255Z,2.77
2018-11-11T17:05:27.456Z,2.77
2018-11-11T17:07:56.444Z,2.90
2018-11-11T17:10:26.762Z,2.20
2018-11-11T17:12:57.096Z,2.80
2018-11-11T17:15:27.434Z,1.70
2018-11-11T17:17:57.002Z,1.70
2018-11-11T17:20:26.504Z,1.70
2018-11-11T17:22:56.968Z,2.37
2018-11-11T17:25:27.386Z,1.70
2018-11-11T17:27:56.527Z,1.50
2018-11-11T17:30:26.558Z,1.80
2018-11-11T17:32:55.941Z,1.98
2018-11-11T17:35:24.804Z,2.20
2018-11-11T17:37:53.770Z,1.98
2018-11-11T17:40:24.906Z,2.17
2018-11-11T17:42:54.541Z,1.70
2018-11-11T17:45:23.453Z,1.90
2018-11-11T17:47:52.959Z,1.95
2018-11-11T17:50:25.082Z,2.08
2018-11-11T17:52:54.079Z,2.40
2018-11-11T17:55:24.240Z,1.47
2018-11-11T17:57:53.074Z,1.80
2018-11-11T18:00:23.192Z,1.83
2018-11-11T18:02:52.376Z,2.10
2018-11-11T18:05:22.493Z,1.90
2018-11-11T18:07:51.499Z,2.10
2018-11-11T18:10:21.422Z,2.10
2018-11-11T18:12:50.374Z,1.98
2018-11-11T18:15:22.965Z,1.90
2018-11-11T18:17:51.888Z,1.60
2018-11-11T18:20:22.274Z,1.80
2018-11-11T18:22:52.114Z,2.20
2018-11-11T18:25:21.012Z,2.60
2018-11-11T18:27:50.091Z,1.80
2018-11-11T18:30:28.067Z,1.90
2018-11-11T18:32:57.021Z,2.47
2018-11-11T18:35:25.930Z,2.00
2018-11-11T18:37:55.813Z,2.20
2018-11-11T18:40:26.040Z,2.20
2018-11-11T18:42:54.971Z,1.82
2018-11-11T18:45:25.545Z,2.35
2018-11-11T18:47:54.754Z,2.23
2018-11-11T18:50:29.322Z,1.85
2018-11-11T18:52:58.241Z,1.53
2018-11-11T18:55:27.170Z,2.50
2018-11-11T18:57:56.206Z,2.17
2018-11-11T19:00:27.403Z,2.80
2018-11-11T19:02:56.854Z,2.02
2018-11-11T19:05:26.440Z,1.92
2018-11-11T19:07:56.045Z,1.85
2018-11-11T19:10:29.174Z,1.77
2018-11-11T19:13:02.710Z,1.80
2018-11-11T19:15:31.781Z,1.50
2018-11-11T19:18:00.753Z,1.90
2018-11-11T19:20:30.116Z,2.10
2018-11-11T19:22:59.058Z,1.40
2018-11-11T19:25:29.133Z,1.77
2018-11-11T19:27:59.073Z,1.80
2018-11-11T19:30:28.805Z,2.00
2018-11-11T19:32:57.658Z,1.90
2018-11-11T19:35:26.622Z,2.12
2018-11-11T19:37:56.471Z,2.20
2018-11-11T19:40:26.480Z,1.50
2018-11-11T19:42:56.581Z,1.60
2018-11-11T19:45:26.707Z,2.40
2018-11-11T19:47:55.617Z,2.30
2018-11-11T19:50:25.724Z,2.40
2018-11-11T19:52:55.597Z,2.47
2018-11-11T19:55:24.821Z,2.30
2018-11-11T19:57:53.848Z,1.60
2018-11-11T20:00:24.637Z,2.30
2018-11-11T20:02:54.362Z,2.60
2018-11-11T20:05:24.061Z,2.45
2018-11-11T20:07:54.368Z,3.30
2018-11-11T20:10:24.192Z,3.30
2018-11-11T20:12:53.194Z,3.10
2018-11-11T20:15:23.617Z,3.65
2018-11-11T20:17:52.525Z,4.62
2018-11-11T20:20:23.246Z,4.10
2018-11-11T20:22:53.785Z,2.70
2018-11-11T20:25:22.939Z,2.27
2018-11-11T20:27:52.377Z,1.90
2018-11-11T20:30:25.001Z,3.50
2018-11-11T20:32:53.981Z,3.05
2018-11-11T20:35:24.322Z,2.10
2018-11-11T20:37:53.258Z,2.72
2018-11-11T20:40:23.257Z,2.50
2018-11-11T20:42:52.707Z,2.60
2018-11-11T20:45:24.126Z,2.57
2018-11-11T20:47:54.822Z,2.70
2018-11-11T20:50:25.174Z,2.30
2018-11-11T20:52:56.594Z,2.50
2018-11-11T20:55:26.557Z,2.47
2018-11-11T20:57:56.309Z,2.40
2018-11-11T21:00:26.757Z,2.60
2018-11-11T21:02:55.794Z,2.90
2018-11-11T21:05:25.949Z,2.07
2018-11-11T21:07:54.967Z,2.33
2018-11-11T21:10:27.186Z,2.30
2018-11-11T21:12:56.319Z,2.20
2018-11-11T21:15:28.393Z,2.70
2018-11-11T21:17:57.367Z,1.85
2018-11-11T21:20:30.509Z,1.90
2018-11-11T21:22:59.874Z,1.52
2018-11-11T21:25:28.911Z,1.60
2018-11-11T21:27:58.898Z,1.62
2018-11-11T21:30:29.193Z,1.50
2018-11-11T21:32:58.185Z,1.50
2018-11-11T21:35:27.207Z,1.70
2018-11-11T21:37:56.207Z,1.40
2018-11-11T21:40:26.104Z,1.95
2018-11-11T21:42:55.711Z,1.77
2018-11-11T21:45:25.581Z,1.57
2018-11-11T21:47:54.553Z,1.20
2018-11-11T21:50:25.657Z,1.10
2018-11-11T21:53:03.191Z,1.10
2018-11-11T21:55:32.069Z,1.30
2018-11-11T21:58:00.996Z,1.07
2018-11-11T22:00:29.926Z,1.00
2018-11-11T22:02:58.973Z,1.10
2018-11-11T22:05:27.877Z,1.10
2018-11-11T22:07:56.786Z,1.20
2018-11-11T22:10:25.706Z,1.30
2018-11-11T22:12:54.636Z,1.20
2018-11-11T22:15:23.546Z,1.10
2018-11-11T22:17:52.506Z,1.00
2018-11-11T22:20:21.442Z,1.00
2018-11-11T22:22:50.380Z,1.15
2018-11-11T22:25:19.317Z,1.00
2018-11-11T22:27:48.371Z,1.20
2018-11-11T22:30:17.250Z,1.10
2018-11-11T22:32:46.230Z,0.90
2018-11-11T22:35:15.173Z,1.00
2018-11-11T22:37:44.149Z,1.00
2018-11-11T22:40:13.537Z,1.10
2018-11-11T22:42:42.525Z,1.20
2018-11-11T22:45:13.872Z,0.90
2018-11-11T22:47:42.801Z,0.80
2018-11-11T22:50:13.237Z,1.00
2018-11-11T22:52:42.277Z,0.90
2018-11-11T22:55:11.530Z,1.02
2018-11-11T22:57:40.901Z,1.15
2018-11-11T23:00:19.001Z,1.00
2018-11-11T23:02:47.985Z,1.00
2018-11-11T23:05:18.218Z,0.85
2018-11-11T23:07:47.313Z,1.10
2018-11-11T23:10:16.334Z,1.00
2018-11-11T23:12:45.272Z,0.90
2018-11-11T23:15:15.422Z,1.00
2018-11-11T23:17:44.360Z,1.05
2018-11-11T23:20:15.022Z,0.88
2018-11-11T23:22:43.965Z,0.80
2018-11-11T23:25:14.246Z,0.95
2018-11-11T23:27:43.211Z,1.00
2018-11-11T23:30:14.766Z,0.85
2018-11-11T23:32:44.014Z,1.10
2018-11-11T23:35:12.946Z,0.88
2018-11-11T23:37:42.465Z,1.00
2018-11-11T23:40:12.488Z,1.00
2018-11-11T23:42:42.417Z,0.80
2018-11-11T23:45:11.346Z,0.80
2018-11-11T23:47:40.469Z,0.80
2018-11-11T23:50:12.719Z,0.80
2018-11-11T23:52:41.960Z,1.10
2018-11-11T23:55:12.602Z,0.70
2018-11-11T23:57:41.509Z,0.90
